sensor_id;sensor_type;location;lat;lon;timestamp;temperature;humidity
19829;DHT22;10075;50.924;4.396;2023-03-23T00:01:05;13.30;99.90
19829;DHT22;10075;50.924;4.396;2023-03-23T00:03:32;13.30;99.90
19829;DHT22;10075;50.924;4.396;2023-03-23T00:06:01;13.30;99.90
19829;DHT22;10075;50.924;4.396;2023-03-23T00:08:32;13.40;99.90
19829;DHT22;10075;50.924;4.396;2023-03-23T00:10:59;13.30;99.90
19829;DHT22;10075;50.924;4.396;2023-03-23T00:13:28;13.30;99.90
19829;DHT22;10075;50.924;4.396;2023-03-23T00:15:55;13.30;99.90
19829;DHT22;10075;50.924;4.396;2023-03-23T00:18:24;13.30;99.90
19829;DHT22;10075;50.924;4.396;2023-03-23T00:20:52;13.30;99.90
19829;DHT22;10075;50.924;4.396;2023-03-23T00:23:22;13.30;99.90
19829;DHT22;10075;50.924;4.396;2023-03-23T00:25:50;13.30;99.90
19829;DHT22;10075;50.924;4.396;2023-03-23T00:28:20;13.20;99.90
19829;DHT22;10075;50.924;4.396;2023-03-23T00:30:54;13.20;99.90
19829;DHT22;10075;50.924;4.396;2023-03-23T00:33:22;13.20;99.90
19829;DHT22;10075;50.924;4.396;2023-03-23T00:35:49;13.20;99.90
19829;DHT22;10075;50.924;4.396;2023-03-23T00:38:18;13.20;99.90
19829;DHT22;10075;50.924;4.396;2023-03-23T00:40:46;13.20;99.90
19829;DHT22;10075;50.924;4.396;2023-03-23T00:43:14;13.20;99.90
19829;DHT22;10075;50.924;4.396;2023-03-23T00:45:42;13.20;99.90
19829;DHT22;10075;50.924;4.396;2023-03-23T00:48:10;13.20;99.90
19829;DHT22;10075;50.924;4.396;2023-03-23T00:50:38;13.20;99.90
19829;DHT22;10075;50.924;4.396;2023-03-23T00:53:05;13.20;99.90
19829;DHT22;10075;50.924;4.396;2023-03-23T00:55:32;13.20;99.90
19829;DHT22;10075;50.924;4.396;2023-03-23T00:58:01;13.20;99.90
19829;DHT22;10075;50.924;4.396;2023-03-23T01:00:28;13.30;99.90
19829;DHT22;10075;50.924;4.396;2023-03-23T01:02:55;13.30;99.90
19829;DHT22;10075;50.924;4.396;2023-03-23T01:05:22;13.30;99.90
19829;DHT22;10075;50.924;4.396;2023-03-23T01:07:49;13.30;99.90
19829;DHT22;10075;50.924;4.396;2023-03-23T01:10:16;13.30;99.90
19829;DHT22;10075;50.924;4.396;2023-03-23T01:12:44;13.30;99.90
19829;DHT22;10075;50.924;4.396;2023-03-23T01:15:16;13.40;99.90
19829;DHT22;10075;50.924;4.396;2023-03-23T01:17:44;13.40;99.90
19829;DHT22;10075;50.924;4.396;2023-03-23T01:20:12;13.40;99.90
19829;DHT22;10075;50.924;4.396;2023-03-23T01:22:40;13.40;99.90
19829;DHT22;10075;50.924;4.396;2023-03-23T01:25:09;13.40;99.90
19829;DHT22;10075;50.924;4.396;2023-03-23T01:27:38;13.40;99.90
19829;DHT22;10075;50.924;4.396;2023-03-23T01:30:07;13.40;99.90
19829;DHT22;10075;50.924;4.396;2023-03-23T01:32:35;13.40;99.90
19829;DHT22;10075;50.924;4.396;2023-03-23T01:35:02;13.40;99.90
19829;DHT22;10075;50.924;4.396;2023-03-23T01:37:30;13.40;99.90
19829;DHT22;10075;50.924;4.396;2023-03-23T01:39:58;13.40;99.90
19829;DHT22;10075;50.924;4.396;2023-03-23T01:42:29;13.30;99.90
19829;DHT22;10075;50.924;4.396;2023-03-23T01:45:32;13.30;99.90
19829;DHT22;10075;50.924;4.396;2023-03-23T01:48:05;13.30;99.90
19829;DHT22;10075;50.924;4.396;2023-03-23T01:50:37;13.30;99.90
19829;DHT22;10075;50.924;4.396;2023-03-23T01:53:08;13.20;99.90
19829;DHT22;10075;50.924;4.396;2023-03-23T01:55:38;13.20;99.90
19829;DHT22;10075;50.924;4.396;2023-03-23T01:58:07;13.20;99.90
19829;DHT22;10075;50.924;4.396;2023-03-23T02:00:35;13.20;99.90
19829;DHT22;10075;50.924;4.396;2023-03-23T02:03:04;13.20;99.90
19829;DHT22;10075;50.924;4.396;2023-03-23T02:05:36;13.20;99.90
19829;DHT22;10075;50.924;4.396;2023-03-23T02:08:06;13.10;99.90
19829;DHT22;10075;50.924;4.396;2023-03-23T02:10:35;13.20;99.90
19829;DHT22;10075;50.924;4.396;2023-03-23T02:13:05;13.20;99.90
19829;DHT22;10075;50.924;4.396;2023-03-23T02:15:40;13.20;99.90
19829;DHT22;10075;50.924;4.396;2023-03-23T02:18:20;13.20;99.90
19829;DHT22;10075;50.924;4.396;2023-03-23T02:21:25;13.20;99.90
19829;DHT22;10075;50.924;4.396;2023-03-23T02:27:12;13.10;99.90
19829;DHT22;10075;50.924;4.396;2023-03-23T02:30:09;13.10;99.90
19829;DHT22;10075;50.924;4.396;2023-03-23T02:35:39;13.20;99.90
19829;DHT22;10075;50.924;4.396;2023-03-23T02:38:13;13.20;99.90
19829;DHT22;10075;50.924;4.396;2023-03-23T02:40:44;13.20;99.90
19829;DHT22;10075;50.924;4.396;2023-03-23T02:43:14;13.20;99.90
19829;DHT22;10075;50.924;4.396;2023-03-23T02:45:43;13.20;99.90
19829;DHT22;10075;50.924;4.396;2023-03-23T02:48:13;13.20;99.90
19829;DHT22;10075;50.924;4.396;2023-03-23T02:50:45;13.20;99.90
19829;DHT22;10075;50.924;4.396;2023-03-23T02:53:16;13.20;99.90
19829;DHT22;10075;50.924;4.396;2023-03-23T02:55:46;13.10;99.90
19829;DHT22;10075;50.924;4.396;2023-03-23T02:58:14;13.10;99.90
19829;DHT22;10075;50.924;4.396;2023-03-23T03:00:41;13.10;99.90
19829;DHT22;10075;50.924;4.396;2023-03-23T03:03:13;13.10;99.90
19829;DHT22;10075;50.924;4.396;2023-03-23T03:05:46;13.10;99.90
19829;DHT22;10075;50.924;4.396;2023-03-23T03:08:20;13.10;99.90
19829;DHT22;10075;50.924;4.396;2023-03-23T03:10:54;13.10;99.90
19829;DHT22;10075;50.924;4.396;2023-03-23T03:13:31;13.10;99.90
19829;DHT22;10075;50.924;4.396;2023-03-23T03:16:07;13.10;99.90
19829;DHT22;10075;50.924;4.396;2023-03-23T03:18:43;13.10;99.90
19829;DHT22;10075;50.924;4.396;2023-03-23T03:21:14;13.10;99.90
19829;DHT22;10075;50.924;4.396;2023-03-23T03:23:47;13.10;99.90
19829;DHT22;10075;50.924;4.396;2023-03-23T03:26:17;13.10;99.90
19829;DHT22;10075;50.924;4.396;2023-03-23T03:28:47;13.10;99.90
19829;DHT22;10075;50.924;4.396;2023-03-23T03:31:17;13.10;99.90
19829;DHT22;10075;50.924;4.396;2023-03-23T03:33:45;13.20;99.90
19829;DHT22;10075;50.924;4.396;2023-03-23T03:36:18;13.20;99.90
19829;DHT22;10075;50.924;4.396;2023-03-23T03:38:48;13.10;99.90
19829;DHT22;10075;50.924;4.396;2023-03-23T03:41:16;13.10;99.90
19829;DHT22;10075;50.924;4.396;2023-03-23T03:43:43;13.10;99.90
19829;DHT22;10075;50.924;4.396;2023-03-23T03:46:10;13.10;99.90
19829;DHT22;10075;50.924;4.396;2023-03-23T03:48:38;13.10;99.90
19829;DHT22;10075;50.924;4.396;2023-03-23T03:51:05;13.20;99.90
19829;DHT22;10075;50.924;4.396;2023-03-23T03:53:33;13.10;99.90
19829;DHT22;10075;50.924;4.396;2023-03-23T03:56:00;13.10;99.90
19829;DHT22;10075;50.924;4.396;2023-03-23T03:58:27;13.10;99.90
19829;DHT22;10075;50.924;4.396;2023-03-23T04:00:58;13.10;99.90
19829;DHT22;10075;50.924;4.396;2023-03-23T04:03:25;13.20;99.90
19829;DHT22;10075;50.924;4.396;2023-03-23T04:05:53;13.20;99.90
19829;DHT22;10075;50.924;4.396;2023-03-23T04:08:21;13.20;99.90
19829;DHT22;10075;50.924;4.396;2023-03-23T04:10:50;13.20;99.90
19829;DHT22;10075;50.924;4.396;2023-03-23T04:13:18;13.10;99.90
19829;DHT22;10075;50.924;4.396;2023-03-23T04:15:45;13.10;99.90
19829;DHT22;10075;50.924;4.396;2023-03-23T04:18:14;13.20;99.90
19829;DHT22;10075;50.924;4.396;2023-03-23T04:20:42;13.20;99.90
19829;DHT22;10075;50.924;4.396;2023-03-23T04:23:10;13.20;99.90
19829;DHT22;10075;50.924;4.396;2023-03-23T04:25:37;13.10;99.90
19829;DHT22;10075;50.924;4.396;2023-03-23T04:28:07;13.20;99.90
19829;DHT22;10075;50.924;4.396;2023-03-23T04:30:35;13.20;99.90
19829;DHT22;10075;50.924;4.396;2023-03-23T04:33:03;13.20;99.90
19829;DHT22;10075;50.924;4.396;2023-03-23T04:35:31;13.20;99.90
19829;DHT22;10075;50.924;4.396;2023-03-23T04:37:59;13.10;99.90
19829;DHT22;10075;50.924;4.396;2023-03-23T04:40:26;13.10;99.90
19829;DHT22;10075;50.924;4.396;2023-03-23T04:42:53;13.10;99.90
19829;DHT22;10075;50.924;4.396;2023-03-23T04:45:24;13.10;99.90
19829;DHT22;10075;50.924;4.396;2023-03-23T04:47:52;13.10;99.90
19829;DHT22;10075;50.924;4.396;2023-03-23T04:50:26;13.00;99.90
19829;DHT22;10075;50.924;4.396;2023-03-23T04:52:53;13.00;99.90
19829;DHT22;10075;50.924;4.396;2023-03-23T04:55:22;13.00;99.90
19829;DHT22;10075;50.924;4.396;2023-03-23T04:57:49;12.90;99.90
19829;DHT22;10075;50.924;4.396;2023-03-23T05:00:16;12.80;99.90
19829;DHT22;10075;50.924;4.396;2023-03-23T05:02:46;12.70;99.90
19829;DHT22;10075;50.924;4.396;2023-03-23T05:05:17;12.70;99.90
19829;DHT22;10075;50.924;4.396;2023-03-23T05:07:44;12.60;99.90
19829;DHT22;10075;50.924;4.396;2023-03-23T05:10:12;12.60;99.90
19829;DHT22;10075;50.924;4.396;2023-03-23T05:12:41;12.50;99.90
19829;DHT22;10075;50.924;4.396;2023-03-23T05:15:09;12.60;99.90
19829;DHT22;10075;50.924;4.396;2023-03-23T05:17:36;12.60;99.90
19829;DHT22;10075;50.924;4.396;2023-03-23T05:20:06;12.60;99.90
19829;DHT22;10075;50.924;4.396;2023-03-23T05:22:34;12.60;99.90
19829;DHT22;10075;50.924;4.396;2023-03-23T05:25:02;12.70;99.90
19829;DHT22;10075;50.924;4.396;2023-03-23T05:27:30;12.70;99.90
19829;DHT22;10075;50.924;4.396;2023-03-23T05:29:58;12.70;99.90
19829;DHT22;10075;50.924;4.396;2023-03-23T05:32:26;12.70;99.90
19829;DHT22;10075;50.924;4.396;2023-03-23T05:34:55;12.80;99.90
19829;DHT22;10075;50.924;4.396;2023-03-23T05:37:25;12.80;99.90
19829;DHT22;10075;50.924;4.396;2023-03-23T05:39:54;12.80;99.90
19829;DHT22;10075;50.924;4.396;2023-03-23T05:42:22;12.80;99.90
19829;DHT22;10075;50.924;4.396;2023-03-23T05:44:49;12.80;99.90
19829;DHT22;10075;50.924;4.396;2023-03-23T05:47:16;12.80;99.90
19829;DHT22;10075;50.924;4.396;2023-03-23T05:49:43;12.80;99.90
19829;DHT22;10075;50.924;4.396;2023-03-23T05:52:11;12.90;99.90
19829;DHT22;10075;50.924;4.396;2023-03-23T05:54:40;12.90;99.90
19829;DHT22;10075;50.924;4.396;2023-03-23T05:57:08;12.80;99.90
19829;DHT22;10075;50.924;4.396;2023-03-23T05:59:35;12.90;99.90
19829;DHT22;10075;50.924;4.396;2023-03-23T06:02:02;12.90;99.90
19829;DHT22;10075;50.924;4.396;2023-03-23T06:04:29;12.90;99.90
19829;DHT22;10075;50.924;4.396;2023-03-23T06:06:59;12.90;99.90
19829;DHT22;10075;50.924;4.396;2023-03-23T06:09:26;12.90;99.90
19829;DHT22;10075;50.924;4.396;2023-03-23T06:11:55;12.90;99.90
19829;DHT22;10075;50.924;4.396;2023-03-23T06:14:22;12.90;99.90
19829;DHT22;10075;50.924;4.396;2023-03-23T06:16:49;12.90;99.90
19829;DHT22;10075;50.924;4.396;2023-03-23T06:19:16;13.00;99.90
19829;DHT22;10075;50.924;4.396;2023-03-23T06:21:43;13.10;99.90
19829;DHT22;10075;50.924;4.396;2023-03-23T06:24:10;13.30;99.90
19829;DHT22;10075;50.924;4.396;2023-03-23T06:26:38;13.30;99.90
19829;DHT22;10075;50.924;4.396;2023-03-23T06:29:08;13.40;99.90
19829;DHT22;10075;50.924;4.396;2023-03-23T06:31:40;13.40;99.90
19829;DHT22;10075;50.924;4.396;2023-03-23T06:34:08;13.50;99.90
19829;DHT22;10075;50.924;4.396;2023-03-23T06:36:35;13.50;99.90
19829;DHT22;10075;50.924;4.396;2023-03-23T06:39:03;13.60;99.90
19829;DHT22;10075;50.924;4.396;2023-03-23T06:41:31;13.70;99.90
19829;DHT22;10075;50.924;4.396;2023-03-23T06:43:58;13.60;99.90
19829;DHT22;10075;50.924;4.396;2023-03-23T06:46:27;13.60;99.90
19829;DHT22;10075;50.924;4.396;2023-03-23T06:48:54;13.20;99.90
19829;DHT22;10075;50.924;4.396;2023-03-23T06:51:21;12.90;99.90
19829;DHT22;10075;50.924;4.396;2023-03-23T06:53:48;12.40;99.90
19829;DHT22;10075;50.924;4.396;2023-03-23T06:56:16;11.80;99.90
19829;DHT22;10075;50.924;4.396;2023-03-23T06:58:43;11.10;99.90
19829;DHT22;10075;50.924;4.396;2023-03-23T07:01:11;10.70;99.90
19829;DHT22;10075;50.924;4.396;2023-03-23T07:03:39;10.60;99.90
19829;DHT22;10075;50.924;4.396;2023-03-23T07:06:07;10.30;99.90
19829;DHT22;10075;50.924;4.396;2023-03-23T07:08:34;10.00;99.90
19829;DHT22;10075;50.924;4.396;2023-03-23T07:11:01;10.00;99.90
19829;DHT22;10075;50.924;4.396;2023-03-23T07:13:28;10.00;99.90
19829;DHT22;10075;50.924;4.396;2023-03-23T07:15:55;10.00;99.90
19829;DHT22;10075;50.924;4.396;2023-03-23T07:18:23;10.00;99.90
19829;DHT22;10075;50.924;4.396;2023-03-23T07:20:53;10.00;99.90
19829;DHT22;10075;50.924;4.396;2023-03-23T07:23:20;10.10;99.90
19829;DHT22;10075;50.924;4.396;2023-03-23T07:25:47;10.10;99.90
19829;DHT22;10075;50.924;4.396;2023-03-23T07:28:14;10.00;99.90
19829;DHT22;10075;50.924;4.396;2023-03-23T07:30:42;10.00;99.90
19829;DHT22;10075;50.924;4.396;2023-03-23T07:33:09;10.00;99.90
19829;DHT22;10075;50.924;4.396;2023-03-23T07:35:37;10.10;99.90
19829;DHT22;10075;50.924;4.396;2023-03-23T07:38:05;10.20;99.90
19829;DHT22;10075;50.924;4.396;2023-03-23T07:40:33;10.20;99.90
19829;DHT22;10075;50.924;4.396;2023-03-23T07:43:01;10.40;99.90
19829;DHT22;10075;50.924;4.396;2023-03-23T07:45:30;10.50;99.90
19829;DHT22;10075;50.924;4.396;2023-03-23T07:47:58;10.80;99.90
19829;DHT22;10075;50.924;4.396;2023-03-23T07:50:25;11.10;99.90
19829;DHT22;10075;50.924;4.396;2023-03-23T07:52:54;11.30;99.90
19829;DHT22;10075;50.924;4.396;2023-03-23T07:55:22;11.40;99.90
19829;DHT22;10075;50.924;4.396;2023-03-23T07:57:50;11.60;99.90
19829;DHT22;10075;50.924;4.396;2023-03-23T08:00:20;11.70;99.90
19829;DHT22;10075;50.924;4.396;2023-03-23T08:02:50;11.90;99.90
19829;DHT22;10075;50.924;4.396;2023-03-23T08:05:17;11.90;99.90
19829;DHT22;10075;50.924;4.396;2023-03-23T08:07:46;12.10;99.90
19829;DHT22;10075;50.924;4.396;2023-03-23T08:10:15;12.20;99.90
19829;DHT22;10075;50.924;4.396;2023-03-23T08:12:45;12.50;99.90
19829;DHT22;10075;50.924;4.396;2023-03-23T08:15:13;12.70;99.90
19829;DHT22;10075;50.924;4.396;2023-03-23T08:17:41;12.70;99.90
19829;DHT22;10075;50.924;4.396;2023-03-23T08:20:10;12.80;99.90
19829;DHT22;10075;50.924;4.396;2023-03-23T08:22:39;12.80;99.90
19829;DHT22;10075;50.924;4.396;2023-03-23T08:25:09;12.70;99.90
19829;DHT22;10075;50.924;4.396;2023-03-23T08:27:37;12.70;99.90
19829;DHT22;10075;50.924;4.396;2023-03-23T08:30:11;12.60;99.90
19829;DHT22;10075;50.924;4.396;2023-03-23T08:32:38;12.60;99.90
19829;DHT22;10075;50.924;4.396;2023-03-23T08:35:07;12.60;99.90
19829;DHT22;10075;50.924;4.396;2023-03-23T08:37:34;12.70;99.90
19829;DHT22;10075;50.924;4.396;2023-03-23T08:40:03;12.60;99.90
19829;DHT22;10075;50.924;4.396;2023-03-23T08:42:34;12.70;99.90
19829;DHT22;10075;50.924;4.396;2023-03-23T08:45:03;12.60;99.90
19829;DHT22;10075;50.924;4.396;2023-03-23T08:47:32;12.60;99.90
19829;DHT22;10075;50.924;4.396;2023-03-23T08:49:59;12.60;99.90
19829;DHT22;10075;50.924;4.396;2023-03-23T08:52:27;12.60;99.90
19829;DHT22;10075;50.924;4.396;2023-03-23T08:54:55;12.70;99.90
19829;DHT22;10075;50.924;4.396;2023-03-23T08:57:22;12.70;99.90
19829;DHT22;10075;50.924;4.396;2023-03-23T08:59:50;12.80;99.90
19829;DHT22;10075;50.924;4.396;2023-03-23T09:02:17;12.70;99.90
19829;DHT22;10075;50.924;4.396;2023-03-23T09:04:45;12.70;99.90
19829;DHT22;10075;50.924;4.396;2023-03-23T09:07:12;12.80;99.90
19829;DHT22;10075;50.924;4.396;2023-03-23T09:09:41;12.80;99.90
19829;DHT22;10075;50.924;4.396;2023-03-23T09:12:09;13.00;99.90
19829;DHT22;10075;50.924;4.396;2023-03-23T09:14:36;12.90;99.90
19829;DHT22;10075;50.924;4.396;2023-03-23T09:17:04;12.80;99.90
19829;DHT22;10075;50.924;4.396;2023-03-23T09:19:32;12.80;99.90
19829;DHT22;10075;50.924;4.396;2023-03-23T09:22:02;12.90;99.90
19829;DHT22;10075;50.924;4.396;2023-03-23T09:24:29;13.00;99.90
19829;DHT22;10075;50.924;4.396;2023-03-23T09:26:56;13.10;99.90
19829;DHT22;10075;50.924;4.396;2023-03-23T09:29:24;13.30;99.90
19829;DHT22;10075;50.924;4.396;2023-03-23T09:31:52;13.20;99.90
19829;DHT22;10075;50.924;4.396;2023-03-23T09:34:19;13.20;99.90
19829;DHT22;10075;50.924;4.396;2023-03-23T09:36:48;13.00;99.90
19829;DHT22;10075;50.924;4.396;2023-03-23T09:39:16;12.80;99.90
19829;DHT22;10075;50.924;4.396;2023-03-23T09:41:57;12.90;99.90
19829;DHT22;10075;50.924;4.396;2023-03-23T09:44:33;13.10;99.90
19829;DHT22;10075;50.924;4.396;2023-03-23T09:47:08;13.10;99.90
19829;DHT22;10075;50.924;4.396;2023-03-23T09:49:41;13.10;99.90
19829;DHT22;10075;50.924;4.396;2023-03-23T09:52:12;13.10;99.90
19829;DHT22;10075;50.924;4.396;2023-03-23T09:54:43;13.10;99.90
19829;DHT22;10075;50.924;4.396;2023-03-23T09:57:15;13.10;99.90
19829;DHT22;10075;50.924;4.396;2023-03-23T09:59:51;13.20;99.90
19829;DHT22;10075;50.924;4.396;2023-03-23T10:02:24;13.30;99.90
19829;DHT22;10075;50.924;4.396;2023-03-23T10:04:55;13.30;99.90
19829;DHT22;10075;50.924;4.396;2023-03-23T10:07:25;13.60;99.90
19829;DHT22;10075;50.924;4.396;2023-03-23T10:09:56;13.80;99.90
19829;DHT22;10075;50.924;4.396;2023-03-23T10:12:29;14.00;99.90
19829;DHT22;10075;50.924;4.396;2023-03-23T10:15:12;14.30;99.90
19829;DHT22;10075;50.924;4.396;2023-03-23T10:17:45;14.60;99.90
19829;DHT22;10075;50.924;4.396;2023-03-23T10:20:32;14.80;99.90
19829;DHT22;10075;50.924;4.396;2023-03-23T10:23:09;14.90;99.90
19829;DHT22;10075;50.924;4.396;2023-03-23T10:25:42;15.10;99.90
19829;DHT22;10075;50.924;4.396;2023-03-23T10:28:12;15.20;99.90
19829;DHT22;10075;50.924;4.396;2023-03-23T10:30:41;15.40;99.90
19829;DHT22;10075;50.924;4.396;2023-03-23T10:33:15;15.60;99.90
19829;DHT22;10075;50.924;4.396;2023-03-23T10:35:47;15.90;99.90
19829;DHT22;10075;50.924;4.396;2023-03-23T10:38:19;16.00;99.90
19829;DHT22;10075;50.924;4.396;2023-03-23T10:40:51;16.10;99.90
19829;DHT22;10075;50.924;4.396;2023-03-23T10:43:19;16.30;99.90
19829;DHT22;10075;50.924;4.396;2023-03-23T10:45:55;16.50;99.90
19829;DHT22;10075;50.924;4.396;2023-03-23T10:48:27;16.70;99.90
19829;DHT22;10075;50.924;4.396;2023-03-23T10:50:59;16.60;99.90
19829;DHT22;10075;50.924;4.396;2023-03-23T10:53:31;16.70;99.90
19829;DHT22;10075;50.924;4.396;2023-03-23T10:56:00;16.50;99.90
19829;DHT22;10075;50.924;4.396;2023-03-23T10:58:29;15.90;99.90
19829;DHT22;10075;50.924;4.396;2023-03-23T11:00:58;15.70;99.90
19829;DHT22;10075;50.924;4.396;2023-03-23T11:03:40;15.90;99.90
19829;DHT22;10075;50.924;4.396;2023-03-23T11:06:09;16.20;99.90
19829;DHT22;10075;50.924;4.396;2023-03-23T11:08:46;16.50;99.90
19829;DHT22;10075;50.924;4.396;2023-03-23T11:11:19;16.50;99.90
19829;DHT22;10075;50.924;4.396;2023-03-23T11:13:49;16.40;99.90
19829;DHT22;10075;50.924;4.396;2023-03-23T11:16:25;16.50;99.90
19829;DHT22;10075;50.924;4.396;2023-03-23T11:18:53;16.50;99.90
19829;DHT22;10075;50.924;4.396;2023-03-23T11:21:22;16.30;99.90
19829;DHT22;10075;50.924;4.396;2023-03-23T11:23:52;16.40;99.90
19829;DHT22;10075;50.924;4.396;2023-03-23T11:26:26;16.40;99.90
19829;DHT22;10075;50.924;4.396;2023-03-23T11:28:56;16.30;99.90
19829;DHT22;10075;50.924;4.396;2023-03-23T11:31:27;16.40;99.90
19829;DHT22;10075;50.924;4.396;2023-03-23T11:33:57;16.50;99.90
19829;DHT22;10075;50.924;4.396;2023-03-23T11:36:30;16.50;99.90
19829;DHT22;10075;50.924;4.396;2023-03-23T11:38:58;16.50;99.90
19829;DHT22;10075;50.924;4.396;2023-03-23T11:41:31;16.40;99.90
19829;DHT22;10075;50.924;4.396;2023-03-23T11:44:03;16.30;99.90
19829;DHT22;10075;50.924;4.396;2023-03-23T11:46:41;16.20;99.90
19829;DHT22;10075;50.924;4.396;2023-03-23T11:49:14;16.30;99.90
19829;DHT22;10075;50.924;4.396;2023-03-23T11:51:48;16.40;99.90
19829;DHT22;10075;50.924;4.396;2023-03-23T11:54:24;16.70;99.90
19829;DHT22;10075;50.924;4.396;2023-03-23T11:56:54;17.10;99.90
19829;DHT22;10075;50.924;4.396;2023-03-23T11:59:27;16.90;99.90
19829;DHT22;10075;50.924;4.396;2023-03-23T12:01:59;16.80;99.90
19829;DHT22;10075;50.924;4.396;2023-03-23T12:04:56;16.70;99.90
19829;DHT22;10075;50.924;4.396;2023-03-23T12:07:46;16.70;99.90
19829;DHT22;10075;50.924;4.396;2023-03-23T12:10:25;16.80;99.90
19829;DHT22;10075;50.924;4.396;2023-03-23T12:13:07;16.80;99.90
19829;DHT22;10075;50.924;4.396;2023-03-23T12:15:41;17.10;99.90
19829;DHT22;10075;50.924;4.396;2023-03-23T12:18:17;17.20;99.90
19829;DHT22;10075;50.924;4.396;2023-03-23T12:20:56;17.30;99.90
19829;DHT22;10075;50.924;4.396;2023-03-23T12:23:30;17.30;99.90
19829;DHT22;10075;50.924;4.396;2023-03-23T12:26:19;17.20;99.90
19829;DHT22;10075;50.924;4.396;2023-03-23T12:32:26;16.80;99.90
19829;DHT22;10075;50.924;4.396;2023-03-23T12:35:01;16.70;99.90
19829;DHT22;10075;50.924;4.396;2023-03-23T12:37:43;16.70;99.90
19829;DHT22;10075;50.924;4.396;2023-03-23T12:40:44;16.70;99.90
19829;DHT22;10075;50.924;4.396;2023-03-23T12:43:20;16.80;99.90
19829;DHT22;10075;50.924;4.396;2023-03-23T12:46:04;16.80;99.90
19829;DHT22;10075;50.924;4.396;2023-03-23T12:48:39;16.80;99.90
19829;DHT22;10075;50.924;4.396;2023-03-23T12:51:16;16.90;99.90
19829;DHT22;10075;50.924;4.396;2023-03-23T12:53:52;17.00;99.90
19829;DHT22;10075;50.924;4.396;2023-03-23T12:56:24;17.20;99.90
19829;DHT22;10075;50.924;4.396;2023-03-23T12:58:56;17.40;99.90
19829;DHT22;10075;50.924;4.396;2023-03-23T13:01:30;17.70;99.90
19829;DHT22;10075;50.924;4.396;2023-03-23T13:04:03;18.00;99.90
19829;DHT22;10075;50.924;4.396;2023-03-23T13:06:35;17.80;99.90
19829;DHT22;10075;50.924;4.396;2023-03-23T13:09:07;17.60;99.90
19829;DHT22;10075;50.924;4.396;2023-03-23T13:11:39;17.50;99.90
19829;DHT22;10075;50.924;4.396;2023-03-23T13:14:21;17.50;99.90
19829;DHT22;10075;50.924;4.396;2023-03-23T13:17:00;17.40;99.90
19829;DHT22;10075;50.924;4.396;2023-03-23T13:19:34;17.40;99.90
19829;DHT22;10075;50.924;4.396;2023-03-23T13:22:05;17.70;99.90
19829;DHT22;10075;50.924;4.396;2023-03-23T13:24:41;17.90;99.90
19829;DHT22;10075;50.924;4.396;2023-03-23T13:27:09;17.90;99.90
19829;DHT22;10075;50.924;4.396;2023-03-23T13:29:44;17.80;99.90
19829;DHT22;10075;50.924;4.396;2023-03-23T13:32:16;17.70;99.90
19829;DHT22;10075;50.924;4.396;2023-03-23T13:34:46;17.40;99.90
19829;DHT22;10075;50.924;4.396;2023-03-23T13:37:21;17.30;99.90
19829;DHT22;10075;50.924;4.396;2023-03-23T13:39:52;17.30;99.90
19829;DHT22;10075;50.924;4.396;2023-03-23T13:42:23;17.40;99.90
19829;DHT22;10075;50.924;4.396;2023-03-23T13:45:18;17.50;99.90
19829;DHT22;10075;50.924;4.396;2023-03-23T13:47:48;17.50;99.90
19829;DHT22;10075;50.924;4.396;2023-03-23T13:50:27;17.40;99.90
19829;DHT22;10075;50.924;4.396;2023-03-23T13:52:59;17.30;99.90
19829;DHT22;10075;50.924;4.396;2023-03-23T13:55:38;17.20;99.90
19829;DHT22;10075;50.924;4.396;2023-03-23T13:58:22;17.40;99.90
19829;DHT22;10075;50.924;4.396;2023-03-23T14:01:02;17.50;99.90
19829;DHT22;10075;50.924;4.396;2023-03-23T14:03:36;17.50;99.90
19829;DHT22;10075;50.924;4.396;2023-03-23T14:06:07;17.50;99.90
19829;DHT22;10075;50.924;4.396;2023-03-23T14:08:40;17.50;99.90
19829;DHT22;10075;50.924;4.396;2023-03-23T14:11:17;17.30;99.90
19829;DHT22;10075;50.924;4.396;2023-03-23T14:13:51;17.40;99.90
19829;DHT22;10075;50.924;4.396;2023-03-23T14:16:28;17.40;99.90
19829;DHT22;10075;50.924;4.396;2023-03-23T14:19:00;17.20;99.90
19829;DHT22;10075;50.924;4.396;2023-03-23T14:21:35;17.40;99.90
19829;DHT22;10075;50.924;4.396;2023-03-23T14:24:08;17.70;99.90
19829;DHT22;10075;50.924;4.396;2023-03-23T14:26:36;17.90;99.90
19829;DHT22;10075;50.924;4.396;2023-03-23T14:29:04;18.10;99.90
19829;DHT22;10075;50.924;4.396;2023-03-23T14:31:32;18.20;99.90
19829;DHT22;10075;50.924;4.396;2023-03-23T14:34:05;18.20;99.90
19829;DHT22;10075;50.924;4.396;2023-03-23T14:36:39;18.10;99.90
19829;DHT22;10075;50.924;4.396;2023-03-23T14:39:12;18.10;99.90
19829;DHT22;10075;50.924;4.396;2023-03-23T14:41:41;18.00;99.90
19829;DHT22;10075;50.924;4.396;2023-03-23T14:44:15;18.00;99.90
19829;DHT22;10075;50.924;4.396;2023-03-23T14:46:43;18.20;99.90
19829;DHT22;10075;50.924;4.396;2023-03-23T14:49:15;18.30;99.90
19829;DHT22;10075;50.924;4.396;2023-03-23T14:51:51;18.50;99.90
19829;DHT22;10075;50.924;4.396;2023-03-23T14:54:22;18.40;99.90
19829;DHT22;10075;50.924;4.396;2023-03-23T14:56:49;18.20;99.90
19829;DHT22;10075;50.924;4.396;2023-03-23T14:59:17;17.70;99.90
19829;DHT22;10075;50.924;4.396;2023-03-23T15:01:46;17.80;99.90
19829;DHT22;10075;50.924;4.396;2023-03-23T15:04:17;18.50;99.90
19829;DHT22;10075;50.924;4.396;2023-03-23T15:06:48;19.00;99.90
19829;DHT22;10075;50.924;4.396;2023-03-23T15:09:17;19.70;99.90
19829;DHT22;10075;50.924;4.396;2023-03-23T15:11:52;20.60;99.90
19829;DHT22;10075;50.924;4.396;2023-03-23T15:14:22;21.50;99.90
19829;DHT22;10075;50.924;4.396;2023-03-23T15:16:50;22.10;99.90
19829;DHT22;10075;50.924;4.396;2023-03-23T15:19:23;22.30;99.90
19829;DHT22;10075;50.924;4.396;2023-03-23T15:21:52;21.80;99.90
19829;DHT22;10075;50.924;4.396;2023-03-23T15:24:33;21.10;99.90
19829;DHT22;10075;50.924;4.396;2023-03-23T15:27:11;20.00;99.90
19829;DHT22;10075;50.924;4.396;2023-03-23T15:29:50;19.70;99.90
19829;DHT22;10075;50.924;4.396;2023-03-23T15:32:25;20.10;99.90
19829;DHT22;10075;50.924;4.396;2023-03-23T15:34:54;20.30;99.90
19829;DHT22;10075;50.924;4.396;2023-03-23T15:37:26;20.40;99.90
19829;DHT22;10075;50.924;4.396;2023-03-23T15:39:55;20.30;99.90
19829;DHT22;10075;50.924;4.396;2023-03-23T15:42:25;20.00;99.90
19829;DHT22;10075;50.924;4.396;2023-03-23T15:44:58;19.70;99.90
19829;DHT22;10075;50.924;4.396;2023-03-23T15:47:37;19.50;99.90
19829;DHT22;10075;50.924;4.396;2023-03-23T15:50:11;18.90;99.90
19829;DHT22;10075;50.924;4.396;2023-03-23T15:52:39;18.40;99.90
19829;DHT22;10075;50.924;4.396;2023-03-23T15:55:19;18.00;99.90
19829;DHT22;10075;50.924;4.396;2023-03-23T15:57:47;17.80;99.90
19829;DHT22;10075;50.924;4.396;2023-03-23T16:00:16;17.60;99.90
19829;DHT22;10075;50.924;4.396;2023-03-23T16:02:45;17.30;99.90